sensor_id;sensor_type;location;lat;lon;timestamp;pressure;altitude;pressure_sealevel;temperature;humidity
71057;BME280;58380;48.312;9.246;2023-03-31T06:44:48;92379.84;;;6.90;100.00
71057;BME280;58380;48.312;9.246;2023-03-31T06:47:14;92356.25;;;6.80;100.00
71057;BME280;58380;48.312;9.246;2023-03-31T06:49:39;92371.41;;;7.04;100.00
71057;BME280;58380;48.312;9.246;2023-03-31T06:52:04;92352.78;;;7.00;100.00
71057;BME280;58380;48.312;9.246;2023-03-31T06:54:30;92354.09;;;7.08;100.00
71057;BME280;58380;48.312;9.246;2023-03-31T06:56:55;92363.41;;;7.45;100.00
71057;BME280;58380;48.312;9.246;2023-03-31T06:59:21;92369.09;;;7.67;100.00
71057;BME280;58380;48.312;9.246;2023-03-31T07:01:46;92380.78;;;7.90;100.00
71057;BME280;58380;48.312;9.246;2023-03-31T07:04:12;92427.50;;;7.98;100.00
71057;BME280;58380;48.312;9.246;2023-03-31T07:06:38;92439.63;;;7.94;100.00
71057;BME280;58380;48.312;9.246;2023-03-31T07:09:03;92636.72;;;7.53;100.00
71057;BME280;58380;48.312;9.246;2023-03-31T07:11:29;92650.25;;;6.74;100.00
71057;BME280;58380;48.312;9.246;2023-03-31T07:13:54;92602.28;;;6.05;100.00
71057;BME280;58380;48.312;9.246;2023-03-31T07:16:20;92620.59;;;6.00;100.00
71057;BME280;58380;48.312;9.246;2023-03-31T07:18:45;92623.97;;;6.00;100.00
71057;BME280;58380;48.312;9.246;2023-03-31T07:21:10;92658.16;;;6.21;100.00
71057;BME280;58380;48.312;9.246;2023-03-31T07:23:36;92612.78;;;6.10;100.00
71057;BME280;58380;48.312;9.246;2023-03-31T07:26:02;92590.50;;;6.13;100.00
71057;BME280;58380;48.312;9.246;2023-03-31T07:28:28;92580.59;;;6.20;100.00
71057;BME280;58380;48.312;9.246;2023-03-31T07:30:54;92582.16;;;6.21;100.00
71057;BME280;58380;48.312;9.246;2023-03-31T07:33:19;92593.53;;;6.47;99.54
71057;BME280;58380;48.312;9.246;2023-03-31T07:35:45;92589.66;;;6.70;96.93
71057;BME280;58380;48.312;9.246;2023-03-31T07:38:11;92569.75;;;6.79;95.74
71057;BME280;58380;48.312;9.246;2023-03-31T07:40:38;92529.59;;;6.74;96.17
71057;BME280;58380;48.312;9.246;2023-03-31T07:43:05;92512.31;;;6.83;95.50
71057;BME280;58380;48.312;9.246;2023-03-31T07:45:30;92524.91;;;6.96;96.22
71057;BME280;58380;48.312;9.246;2023-03-31T07:47:57;92487.66;;;6.94;95.13
71057;BME280;58380;48.312;9.246;2023-03-31T07:50:23;92484.50;;;7.07;92.42
71057;BME280;58380;48.312;9.246;2023-03-31T07:52:49;92494.22;;;7.12;95.13
71057;BME280;58380;48.312;9.246;2023-03-31T07:55:15;92474.00;;;7.07;93.81
71057;BME280;58380;48.312;9.246;2023-03-31T07:57:41;92478.19;;;7.19;92.67
71057;BME280;58380;48.312;9.246;2023-03-31T08:00:10;92494.72;;;7.34;94.18
71057;BME280;58380;48.312;9.246;2023-03-31T08:02:37;92444.34;;;7.17;91.42
71057;BME280;58380;48.312;9.246;2023-03-31T08:05:04;92454.53;;;7.44;91.68
71057;BME280;58380;48.312;9.246;2023-03-31T08:07:33;92448.69;;;7.63;93.20
71057;BME280;58380;48.312;9.246;2023-03-31T08:10:03;92442.38;;;7.69;90.97
71057;BME280;58380;48.312;9.246;2023-03-31T08:12:29;92473.44;;;8.06;92.41
71057;BME280;58380;48.312;9.246;2023-03-31T08:14:55;92448.50;;;8.09;90.35
71057;BME280;58380;48.312;9.246;2023-03-31T08:17:20;92481.72;;;8.39;89.83
71057;BME280;58380;48.312;9.246;2023-03-31T08:19:45;92444.41;;;8.32;87.01
71057;BME280;58380;48.312;9.246;2023-03-31T08:22:11;92449.88;;;8.46;88.42
71057;BME280;58380;48.312;9.246;2023-03-31T08:24:36;92456.81;;;8.71;86.27
71057;BME280;58380;48.312;9.246;2023-03-31T08:27:02;92468.09;;;8.76;84.50
71057;BME280;58380;48.312;9.246;2023-03-31T08:29:27;92430.44;;;8.76;87.17
71057;BME280;58380;48.312;9.246;2023-03-31T08:31:53;92463.19;;;8.99;86.26
71057;BME280;58380;48.312;9.246;2023-03-31T08:34:19;92463.41;;;9.02;80.77
71057;BME280;58380;48.312;9.246;2023-03-31T08:36:45;92460.13;;;9.16;79.93
71057;BME280;58380;48.312;9.246;2023-03-31T08:39:11;92461.81;;;9.31;81.08
71057;BME280;58380;48.312;9.246;2023-03-31T08:41:50;92434.44;;;9.32;82.50
71057;BME280;58380;48.312;9.246;2023-03-31T08:44:43;92451.13;;;9.51;80.69
71057;BME280;58380;48.312;9.246;2023-03-31T08:47:19;92433.41;;;9.57;79.43
71057;BME280;58380;48.312;9.246;2023-03-31T08:50:02;92420.50;;;9.55;78.89
71057;BME280;58380;48.312;9.246;2023-03-31T08:52:39;92416.75;;;9.61;78.00
71057;BME280;58380;48.312;9.246;2023-03-31T08:55:14;92446.28;;;9.82;80.35
71057;BME280;58380;48.312;9.246;2023-03-31T09:00:23;92429.00;;;9.95;74.97
71057;BME280;58380;48.312;9.246;2023-03-31T09:02:55;92452.69;;;10.19;76.42
71057;BME280;58380;48.312;9.246;2023-03-31T09:05:38;92448.31;;;10.33;77.31
71057;BME280;58380;48.312;9.246;2023-03-31T09:11:11;92419.00;;;10.35;75.49
71057;BME280;58380;48.312;9.246;2023-03-31T09:13:55;92444.81;;;10.38;76.51
71057;BME280;58380;48.312;9.246;2023-03-31T09:16:54;92435.25;;;10.42;75.04
71057;BME280;58380;48.312;9.246;2023-03-31T09:19:37;92415.94;;;10.47;75.00
71057;BME280;58380;48.312;9.246;2023-03-31T09:22:37;92423.63;;;10.62;72.30
71057;BME280;58380;48.312;9.246;2023-03-31T09:27:44;92437.91;;;10.61;71.59
71057;BME280;58380;48.312;9.246;2023-03-31T09:30:16;92419.34;;;10.66;71.57
71057;BME280;58380;48.312;9.246;2023-03-31T09:32:51;92393.91;;;10.38;67.10
71057;BME280;58380;48.312;9.246;2023-03-31T09:35:38;92412.56;;;10.60;69.78
71057;BME280;58380;48.312;9.246;2023-03-31T09:38:03;92433.53;;;10.70;66.41
71057;BME280;58380;48.312;9.246;2023-03-31T09:40:29;92409.00;;;10.70;67.95
71057;BME280;58380;48.312;9.246;2023-03-31T09:43:27;92415.13;;;10.65;67.63
71057;BME280;58380;48.312;9.246;2023-03-31T09:45:54;92402.59;;;10.57;65.47
71057;BME280;58380;48.312;9.246;2023-03-31T09:48:29;92385.13;;;10.61;67.16
71057;BME280;58380;48.312;9.246;2023-03-31T09:51:05;92387.44;;;10.82;68.19
71057;BME280;58380;48.312;9.246;2023-03-31T09:53:39;92408.31;;;10.78;64.68
71057;BME280;58380;48.312;9.246;2023-03-31T09:56:11;92404.97;;;10.58;65.75
71057;BME280;58380;48.312;9.246;2023-03-31T09:58:42;92397.91;;;10.54;67.20
71057;BME280;58380;48.312;9.246;2023-03-31T10:01:11;92364.81;;;10.24;67.10
71057;BME280;58380;48.312;9.246;2023-03-31T10:03:50;92376.94;;;10.44;66.44
71057;BME280;58380;48.312;9.246;2023-03-31T10:06:22;92359.03;;;10.41;66.63
71057;BME280;58380;48.312;9.246;2023-03-31T10:09:00;92344.06;;;10.17;66.97
71057;BME280;58380;48.312;9.246;2023-03-31T10:11:29;92360.03;;;10.45;68.10
71057;BME280;58380;48.312;9.246;2023-03-31T10:14:02;92376.63;;;10.45;68.21
71057;BME280;58380;48.312;9.246;2023-03-31T10:16:48;92349.56;;;10.72;68.53
71057;BME280;58380;48.312;9.246;2023-03-31T10:19:25;92362.53;;;11.01;66.12
71057;BME280;58380;48.312;9.246;2023-03-31T10:22:13;92329.50;;;11.32;60.71
71057;BME280;58380;48.312;9.246;2023-03-31T10:24:44;92294.59;;;11.21;58.15
71057;BME280;58380;48.312;9.246;2023-03-31T10:27:22;92340.72;;;11.79;59.51
71057;BME280;58380;48.312;9.246;2023-03-31T10:30:04;92320.25;;;11.84;57.93
71057;BME280;58380;48.312;9.246;2023-03-31T10:32:43;92251.41;;;11.39;56.37
71057;BME280;58380;48.312;9.246;2023-03-31T10:35:34;92328.97;;;11.99;55.43
71057;BME280;58380;48.312;9.246;2023-03-31T10:38:04;92292.75;;;11.72;56.71
71057;BME280;58380;48.312;9.246;2023-03-31T10:40:35;92288.91;;;11.78;54.44
71057;BME280;58380;48.312;9.246;2023-03-31T10:45:46;92248.69;;;11.81;53.63
71057;BME280;58380;48.312;9.246;2023-03-31T10:48:34;92270.19;;;12.02;54.32
71057;BME280;58380;48.312;9.246;2023-03-31T10:51:26;92294.06;;;12.11;52.97
71057;BME280;58380;48.312;9.246;2023-03-31T10:53:54;92255.28;;;11.70;51.88
71057;BME280;58380;48.312;9.246;2023-03-31T10:56:38;92292.59;;;12.04;53.20
71057;BME280;58380;48.312;9.246;2023-03-31T11:25:17;92281.88;;;13.08;47.79
71057;BME280;58380;48.312;9.246;2023-03-31T11:30:37;92340.38;;;12.67;49.24
71057;BME280;58380;48.312;9.246;2023-03-31T11:33:25;92342.00;;;10.52;55.99
71057;BME280;58380;48.312;9.246;2023-03-31T11:36:33;92374.38;;;9.58;63.56
71057;BME280;58380;48.312;9.246;2023-03-31T11:39:55;92423.88;;;8.39;69.44
71057;BME280;58380;48.312;9.246;2023-03-31T11:42:55;92386.16;;;7.70;72.57
71057;BME280;58380;48.312;9.246;2023-03-31T11:45:31;92420.69;;;7.27;74.81
71057;BME280;58380;48.312;9.246;2023-03-31T11:48:06;92474.22;;;7.37;77.39
71057;BME280;58380;48.312;9.246;2023-03-31T11:50:44;92428.59;;;7.17;80.06
71057;BME280;58380;48.312;9.246;2023-03-31T11:53:16;92444.31;;;7.27;79.92
71057;BME280;58380;48.312;9.246;2023-03-31T11:55:47;92405.78;;;7.02;80.02
71057;BME280;58380;48.312;9.246;2023-03-31T11:58:34;92440.63;;;7.33;80.16
71057;BME280;58380;48.312;9.246;2023-03-31T12:01:12;92411.81;;;7.03;80.56
71057;BME280;58380;48.312;9.246;2023-03-31T12:06:36;92384.72;;;7.28;80.65
71057;BME280;58380;48.312;9.246;2023-03-31T12:09:20;92412.34;;;7.85;80.97
71057;BME280;58380;48.312;9.246;2023-03-31T12:11:58;92420.44;;;7.99;79.28
71057;BME280;58380;48.312;9.246;2023-03-31T12:17:27;92409.84;;;7.54;86.36
71057;BME280;58380;48.312;9.246;2023-03-31T12:20:08;92391.44;;;7.60;85.14
71057;BME280;58380;48.312;9.246;2023-03-31T12:22:47;92393.63;;;7.37;84.62
71057;BME280;58380;48.312;9.246;2023-03-31T12:25:15;92370.03;;;7.27;83.75
71057;BME280;58380;48.312;9.246;2023-03-31T12:27:47;92335.34;;;7.40;86.68
71057;BME280;58380;48.312;9.246;2023-03-31T12:33:22;92329.91;;;8.15;84.82
71057;BME280;58380;48.312;9.246;2023-03-31T12:39:39;92323.34;;;8.52;79.25
71057;BME280;58380;48.312;9.246;2023-03-31T12:45:27;92311.19;;;9.10;74.63
71057;BME280;58380;48.312;9.246;2023-03-31T12:53:58;92293.78;;;9.57;70.33
71057;BME280;58380;48.312;9.246;2023-03-31T12:59:32;92262.50;;;9.31;69.13
71057;BME280;58380;48.312;9.246;2023-03-31T13:04:33;92253.09;;;9.01;69.22
71057;BME280;58380;48.312;9.246;2023-03-31T13:06:59;92254.84;;;9.11;69.48
71057;BME280;58380;48.312;9.246;2023-03-31T13:09:41;92263.91;;;9.23;68.80
71057;BME280;58380;48.312;9.246;2023-03-31T13:12:13;92244.47;;;9.38;66.46
71057;BME280;58380;48.312;9.246;2023-03-31T13:14:45;92240.72;;;9.44;65.70
71057;BME280;58380;48.312;9.246;2023-03-31T13:17:22;92215.03;;;9.36;61.87
71057;BME280;58380;48.312;9.246;2023-03-31T13:19:50;92248.84;;;9.67;61.06
71057;BME280;58380;48.312;9.246;2023-03-31T13:22:30;92238.44;;;9.94;60.68
71057;BME280;58380;48.312;9.246;2023-03-31T13:25:30;92268.75;;;10.30;59.33
71057;BME280;58380;48.312;9.246;2023-03-31T13:28:17;92241.91;;;10.09;58.01
71057;BME280;58380;48.312;9.246;2023-03-31T13:30:52;92242.09;;;10.12;57.79
71057;BME280;58380;48.312;9.246;2023-03-31T13:33:22;92262.25;;;10.55;57.71
71057;BME280;58380;48.312;9.246;2023-03-31T13:36:09;92241.84;;;10.74;58.18
71057;BME280;58380;48.312;9.246;2023-03-31T13:38:54;92225.44;;;10.77;55.15
71057;BME280;58380;48.312;9.246;2023-03-31T13:42:00;92250.06;;;10.73;54.16
71057;BME280;58380;48.312;9.246;2023-03-31T13:50:36;92266.09;;;10.30;54.56
71057;BME280;58380;48.312;9.246;2023-03-31T13:53:15;92283.81;;;10.43;55.70
71057;BME280;58380;48.312;9.246;2023-03-31T13:56:08;92283.59;;;10.07;56.70
71057;BME280;58380;48.312;9.246;2023-03-31T13:59:10;92307.59;;;9.86;61.13
71057;BME280;58380;48.312;9.246;2023-03-31T14:07:49;92344.34;;;7.73;81.76
71057;BME280;58380;48.312;9.246;2023-03-31T14:10:34;92323.50;;;7.48;84.44
71057;BME280;58380;48.312;9.246;2023-03-31T14:13:16;92308.50;;;7.48;87.47
71057;BME280;58380;48.312;9.246;2023-03-31T14:15:48;92329.81;;;7.47;87.47
71057;BME280;58380;48.312;9.246;2023-03-31T14:18:24;92325.94;;;7.24;90.70
71057;BME280;58380;48.312;9.246;2023-03-31T14:29:33;92301.72;;;6.77;94.46
71057;BME280;58380;48.312;9.246;2023-03-31T14:32:39;92292.00;;;6.78;94.36
71057;BME280;58380;48.312;9.246;2023-03-31T14:35:27;92291.75;;;6.64;93.10
71057;BME280;58380;48.312;9.246;2023-03-31T14:38:03;92298.31;;;6.72;93.85
71057;BME280;58380;48.312;9.246;2023-03-31T14:40:34;92272.69;;;6.43;93.09
71057;BME280;58380;48.312;9.246;2023-03-31T14:43:26;92316.41;;;6.63;95.35
71057;BME280;58380;48.312;9.246;2023-03-31T14:46:08;92326.38;;;6.61;95.88
71057;BME280;58380;48.312;9.246;2023-03-31T14:48:44;92338.47;;;6.62;95.70
71057;BME280;58380;48.312;9.246;2023-03-31T14:51:14;92332.41;;;6.56;97.44
71057;BME280;58380;48.312;9.246;2023-03-31T14:53:41;92297.03;;;6.48;94.61
71057;BME280;58380;48.312;9.246;2023-03-31T14:56:15;92272.44;;;6.34;97.33
71057;BME280;58380;48.312;9.246;2023-03-31T14:58:48;92281.84;;;6.51;96.57
71057;BME280;58380;48.312;9.246;2023-03-31T15:01:22;92244.09;;;6.41;96.76
71057;BME280;58380;48.312;9.246;2023-03-31T15:03:52;92234.94;;;6.34;92.98
71057;BME280;58380;48.312;9.246;2023-03-31T15:06:23;92239.88;;;6.56;92.48
71057;BME280;58380;48.312;9.246;2023-03-31T15:08:54;92234.59;;;6.66;94.13
71057;BME280;58380;48.312;9.246;2023-03-31T15:11:22;92273.09;;;6.86;92.73
71057;BME280;58380;48.312;9.246;2023-03-31T15:13:50;92258.41;;;6.90;93.42
71057;BME280;58380;48.312;9.246;2023-03-31T15:16:36;92254.94;;;7.00;92.76
71057;BME280;58380;48.312;9.246;2023-03-31T15:19:22;92248.38;;;7.02;91.99
71057;BME280;58380;48.312;9.246;2023-03-31T15:21:54;92238.91;;;7.01;90.18
71057;BME280;58380;48.312;9.246;2023-03-31T15:24:28;92246.53;;;7.03;89.22
71057;BME280;58380;48.312;9.246;2023-03-31T15:27:26;92258.94;;;7.42;88.84
71057;BME280;58380;48.312;9.246;2023-03-31T15:29:59;92243.50;;;7.74;86.02
71057;BME280;58380;48.312;9.246;2023-03-31T15:32:29;92260.97;;;8.24;80.20
71057;BME280;58380;48.312;9.246;2023-03-31T15:34:58;92259.09;;;8.29;80.05
71057;BME280;58380;48.312;9.246;2023-03-31T15:37:31;92273.97;;;8.44;78.01
71057;BME280;58380;48.312;9.246;2023-03-31T15:40:16;92237.28;;;8.29;79.12
71057;BME280;58380;48.312;9.246;2023-03-31T15:42:44;92259.88;;;8.30;77.63
71057;BME280;58380;48.312;9.246;2023-03-31T15:47:49;92264.31;;;8.00;79.53
71057;BME280;58380;48.312;9.246;2023-03-31T15:50:16;92283.72;;;8.09;77.50
71057;BME280;58380;48.312;9.246;2023-03-31T15:52:48;92274.00;;;8.05;76.98
71057;BME280;58380;48.312;9.246;2023-03-31T15:55:25;92265.06;;;8.06;79.12
71057;BME280;58380;48.312;9.246;2023-03-31T15:58:04;92276.44;;;7.96;76.19
71057;BME280;58380;48.312;9.246;2023-03-31T16:02:55;92237.72;;;7.72;75.44
71057;BME280;58380;48.312;9.246;2023-03-31T16:05:38;92205.34;;;7.48;76.60
71057;BME280;58380;48.312;9.246;2023-03-31T16:08:29;92241.97;;;7.68;75.27
71057;BME280;58380;48.312;9.246;2023-03-31T16:11:08;92245.75;;;7.52;76.06
71057;BME280;58380;48.312;9.246;2023-03-31T16:13:39;92241.31;;;7.47;74.85
71057;BME280;58380;48.312;9.246;2023-03-31T16:16:12;92253.63;;;7.52;75.01
71057;BME280;58380;48.312;9.246;2023-03-31T16:18:49;92224.59;;;7.33;76.29
71057;BME280;58380;48.312;9.246;2023-03-31T16:21:29;92240.34;;;7.33;76.33
71057;BME280;58380;48.312;9.246;2023-03-31T16:24:06;92237.97;;;7.37;75.74
71057;BME280;58380;48.312;9.246;2023-03-31T16:26:32;92253.38;;;7.48;74.76
71057;BME280;58380;48.312;9.246;2023-03-31T16:28:59;92261.69;;;7.61;75.45
71057;BME280;58380;48.312;9.246;2023-03-31T16:34:02;92249.59;;;7.65;74.55
71057;BME280;58380;48.312;9.246;2023-03-31T16:36:29;92241.84;;;7.49;75.63
71057;BME280;58380;48.312;9.246;2023-03-31T16:38:55;92257.56;;;7.54;73.72
71057;BME280;58380;48.312;9.246;2023-03-31T16:41:23;92285.56;;;7.69;74.05
71057;BME280;58380;48.312;9.246;2023-03-31T16:43:49;92284.50;;;7.70;73.94
71057;BME280;58380;48.312;9.246;2023-03-31T16:46:16;92279.53;;;7.69;74.31
71057;BME280;58380;48.312;9.246;2023-03-31T16:48:42;92277.47;;;7.61;74.09
71057;BME280;58380;48.312;9.246;2023-03-31T16:51:07;92253.59;;;7.57;75.08
71057;BME280;58380;48.312;9.246;2023-03-31T16:53:34;92270.59;;;7.70;75.60
71057;BME280;58380;48.312;9.246;2023-03-31T16:56:02;92275.84;;;7.70;75.75
71057;BME280;58380;48.312;9.246;2023-03-31T16:58:29;92249.94;;;7.53;75.68
71057;BME280;58380;48.312;9.246;2023-03-31T17:00:56;92274.81;;;7.66;76.15
71057;BME280;58380;48.312;9.246;2023-03-31T17:03:22;92275.13;;;7.59;77.14
71057;BME280;58380;48.312;9.246;2023-03-31T17:05:52;92274.84;;;7.61;76.55
71057;BME280;58380;48.312;9.246;2023-03-31T17:08:22;92274.91;;;7.50;77.49
71057;BME280;58380;48.312;9.246;2023-03-31T17:10:54;92285.38;;;7.55;77.49
71057;BME280;58380;48.312;9.246;2023-03-31T17:13:23;92274.16;;;7.45;79.66
71057;BME280;58380;48.312;9.246;2023-03-31T17:15:49;92305.09;;;7.48;80.38
71057;BME280;58380;48.312;9.246;2023-03-31T17:18:15;92296.00;;;7.35;81.01
71057;BME280;58380;48.312;9.246;2023-03-31T17:20:41;92300.19;;;7.31;82.92
71057;BME280;58380;48.312;9.246;2023-03-31T17:23:06;92279.56;;;7.04;83.43
71057;BME280;58380;48.312;9.246;2023-03-31T17:25:33;92209.72;;;6.58;84.30
71057;BME280;58380;48.312;9.246;2023-03-31T17:28:00;92303.19;;;7.09;85.39
71057;BME280;58380;48.312;9.246;2023-03-31T17:30:28;92242.78;;;6.54;83.56
71057;BME280;58380;48.312;9.246;2023-03-31T17:32:55;92269.16;;;6.83;84.98
71057;BME280;58380;48.312;9.246;2023-03-31T17:35:20;92290.63;;;6.96;85.42
71057;BME280;58380;48.312;9.246;2023-03-31T17:37:47;92290.94;;;6.84;84.71
71057;BME280;58380;48.312;9.246;2023-03-31T17:40:22;92303.50;;;6.92;84.34
71057;BME280;58380;48.312;9.246;2023-03-31T17:42:49;92296.97;;;6.89;85.12
71057;BME280;58380;48.312;9.246;2023-03-31T17:45:14;92313.69;;;6.99;84.16
71057;BME280;58380;48.312;9.246;2023-03-31T17:47:40;92295.34;;;6.94;83.48
71057;BME280;58380;48.312;9.246;2023-03-31T17:50:07;92304.00;;;7.04;84.20
71057;BME280;58380;48.312;9.246;2023-03-31T17:52:34;92290.13;;;6.88;82.65
71057;BME280;58380;48.312;9.246;2023-03-31T17:55:01;92282.03;;;6.80;82.86
71057;BME280;58380;48.312;9.246;2023-03-31T17:57:28;92283.34;;;6.82;83.55
71057;BME280;58380;48.312;9.246;2023-03-31T17:59:54;92297.53;;;6.66;83.77
71057;BME280;58380;48.312;9.246;2023-03-31T18:02:20;92334.69;;;6.94;84.31
71057;BME280;58380;48.312;9.246;2023-03-31T18:04:46;92313.25;;;6.76;86.07
71057;BME280;58380;48.312;9.246;2023-03-31T18:07:11;92320.63;;;6.74;88.10
71057;BME280;58380;48.312;9.246;2023-03-31T18:09:37;92291.53;;;6.55;88.09
71057;BME280;58380;48.312;9.246;2023-03-31T18:12:03;92336.88;;;6.66;87.21
71057;BME280;58380;48.312;9.246;2023-03-31T18:14:29;92247.31;;;6.13;88.74
71057;BME280;58380;48.312;9.246;2023-03-31T18:16:54;92330.06;;;6.55;88.38
71057;BME280;58380;48.312;9.246;2023-03-31T18:19:20;92309.91;;;6.45;89.16
71057;BME280;58380;48.312;9.246;2023-03-31T18:21:46;92331.63;;;6.56;89.37
71057;BME280;58380;48.312;9.246;2023-03-31T18:24:12;92333.22;;;6.62;87.24
71057;BME280;58380;48.312;9.246;2023-03-31T18:26:38;92311.75;;;6.50;88.98
71057;BME280;58380;48.312;9.246;2023-03-31T18:29:03;92336.34;;;6.69;87.10
71057;BME280;58380;48.312;9.246;2023-03-31T18:31:29;92306.50;;;6.50;86.17
71057;BME280;58380;48.312;9.246;2023-03-31T18:33:54;92311.44;;;6.56;84.82
71057;BME280;58380;48.312;9.246;2023-03-31T18:36:21;92347.31;;;6.81;83.53
71057;BME280;58380;48.312;9.246;2023-03-31T18:38:48;92297.56;;;6.56;84.52
71057;BME280;58380;48.312;9.246;2023-03-31T18:41:16;92339.22;;;6.73;85.59
71057;BME280;58380;48.312;9.246;2023-03-31T18:43:42;92325.88;;;6.54;84.80
71057;BME280;58380;48.312;9.246;2023-03-31T18:46:08;92328.22;;;6.60;85.38
71057;BME280;58380;48.312;9.246;2023-03-31T18:48:34;92344.72;;;6.66;85.01
71057;BME280;58380;48.312;9.246;2023-03-31T18:51:01;92321.97;;;6.41;85.79
71057;BME280;58380;48.312;9.246;2023-03-31T18:53:26;92356.81;;;6.67;84.74
71057;BME280;58380;48.312;9.246;2023-03-31T18:55:57;92343.19;;;6.55;85.33
71057;BME280;58380;48.312;9.246;2023-03-31T18:58:24;92333.72;;;6.54;84.50
71057;BME280;58380;48.312;9.246;2023-03-31T19:00:52;92317.00;;;6.34;84.93
71057;BME280;58380;48.312;9.246;2023-03-31T19:03:18;92315.41;;;6.28;84.17
71057;BME280;58380;48.312;9.246;2023-03-31T19:05:44;92360.47;;;6.51;84.72
71057;BME280;58380;48.312;9.246;2023-03-31T19:08:10;92363.09;;;6.51;84.95
71057;BME280;58380;48.312;9.246;2023-03-31T19:10:36;92342.13;;;6.45;84.77
71057;BME280;58380;48.312;9.246;2023-03-31T19:13:02;92363.63;;;6.53;84.84
71057;BME280;58380;48.312;9.246;2023-03-31T19:15:28;92353.16;;;6.37;85.29
71057;BME280;58380;48.312;9.246;2023-03-31T19:17:53;92347.13;;;6.42;84.64
71057;BME280;58380;48.312;9.246;2023-03-31T19:20:19;92343.69;;;6.41;84.97
71057;BME280;58380;48.312;9.246;2023-03-31T19:22:48;92320.13;;;6.21;85.36
71057;BME280;58380;48.312;9.246;2023-03-31T19:25:16;92343.19;;;6.24;84.76
71057;BME280;58380;48.312;9.246;2023-03-31T19:27:43;92343.22;;;6.34;85.00
71057;BME280;58380;48.312;9.246;2023-03-31T19:30:21;92361.53;;;6.44;85.44
71057;BME280;58380;48.312;9.246;2023-03-31T19:32:49;92309.66;;;6.11;85.94
71057;BME280;58380;48.312;9.246;2023-03-31T19:35:15;92333.22;;;6.26;87.15
71057;BME280;58380;48.312;9.246;2023-03-31T19:37:42;92342.69;;;6.22;87.00
71057;BME280;58380;48.312;9.246;2023-03-31T19:40:08;92298.41;;;5.95;87.08
71057;BME280;58380;48.312;9.246;2023-03-31T19:42:34;92346.88;;;6.23;87.31
71057;BME280;58380;48.312;9.246;2023-03-31T19:45:00;92340.56;;;6.19;87.69
71057;BME280;58380;48.312;9.246;2023-03-31T19:47:26;92341.88;;;6.11;88.65
71057;BME280;58380;48.312;9.246;2023-03-31T19:49:52;92349.47;;;6.13;88.81
71057;BME280;58380;48.312;9.246;2023-03-31T19:52:17;92357.88;;;6.15;89.14
71057;BME280;58380;48.312;9.246;2023-03-31T19:54:42;92350.53;;;6.17;89.33
71057;BME280;58380;48.312;9.246;2023-03-31T19:57:09;92344.50;;;6.11;89.54
71057;BME280;58380;48.312;9.246;2023-03-31T19:59:35;92339.78;;;6.13;89.74
71057;BME280;58380;48.312;9.246;2023-03-31T20:02:01;92336.38;;;6.18;89.70
71057;BME280;58380;48.312;9.246;2023-03-31T20:04:29;92337.16;;;6.08;90.71
71057;BME280;58380;48.312;9.246;2023-03-31T20:06:56;92341.38;;;6.09;90.32
71057;BME280;58380;48.312;9.246;2023-03-31T20:09:22;92352.88;;;6.08;91.03
71057;BME280;58380;48.312;9.246;2023-03-31T20:11:49;92345.03;;;6.03;91.20
71057;BME280;58380;48.312;9.246;2023-03-31T20:14:16;92359.69;;;6.04;92.26
71057;BME280;58380;48.312;9.246;2023-03-31T20:16:42;92353.91;;;5.92;93.44
71057;BME280;58380;48.312;9.246;2023-03-31T20:19:10;92356.75;;;5.85;93.87
71057;BME280;58380;48.312;9.246;2023-03-31T20:21:37;92359.63;;;5.78;94.21
71057;BME280;58380;48.312;9.246;2023-03-31T20:24:04;92353.84;;;5.76;94.90
71057;BME280;58380;48.312;9.246;2023-03-31T20:26:32;92363.31;;;5.82;95.12
71057;BME280;58380;48.312;9.246;2023-03-31T20:29:00;92367.22;;;5.80;95.99
